Time,TemperatureF,DewpointF,PressureIn,WindDirection,WindDirectionDegrees,WindSpeedMPH,WindSpeedGustMPH,Humidity,HourlyPrecipIn,Conditions,Clouds,dailyrainin,SoftwareType,DateUTC
2013-07-25 00:00:00,56.6,51.0,30.01,WSW,240,2.0,5.0,82,0.00,,,0.00,weatherlink.com 1.10,2013-07-25 04:00:00,
2013-07-25 00:15:00,56.1,51.0,30.01,WSW,247,3.0,6.0,84,0.00,,,0.00,weatherlink.com 1.10,2013-07-25 04:15:00,
2013-07-25 00:30:00,56.0,51.0,30.01,SSW,208,3.0,4.0,84,0.00,,,0.00,weatherlink.com 1.10,2013-07-25 04:30:00,
2013-07-25 00:45:00,55.6,51.0,30.01,SSW,204,5.0,5.0,85,0.00,,,0.00,weatherlink.com 1.10,2013-07-25 04:45:00,
2013-07-25 01:00:00,55.6,52.0,30.01,SW,227,2.0,6.0,86,0.00,,,0.00,weatherlink.com 1.10,2013-07-25 05:00:00,
2013-07-25 01:15:00,55.2,51.0,30.01,South,182,1.0,4.0,86,0.00,,,0.00,weatherlink.com 1.10,2013-07-25 05:15:00,
2013-07-25 01:30:00,53.9,51.0,30.01,SSW,201,4.0,6.0,88,0.00,,,0.00,weatherlink.com 1.10,2013-07-25 05:30:00,
2013-07-25 01:45:00,53.7,50.0,30.01,South,185,1.0,6.0,88,0.00,,,0.00,weatherlink.com 1.10,2013-07-25 05:45:00,
2013-07-25 02:00:00,52.9,50.0,30.01,SSE,164,0.0,2.0,90,0.00,,,0.00,weatherlink.com 1.10,2013-07-25 06:00:00,
2013-07-25 02:15:00,52.0,50.0,30.01,South,184,1.0,4.0,91,0.00,,,0.00,weatherlink.com 1.10,2013-07-25 06:15:00,
2013-07-25 02:30:00,52.5,50.0,30.01,SSE,165,0.0,4.0,91,0.00,,,0.00,weatherlink.com 1.10,2013-07-25 06:30:00,
2013-07-25 02:45:00,53.3,51.0,30.01,SSW,211,4.0,5.0,93,0.00,,,0.00,weatherlink.com 1.10,2013-07-25 06:45:00,
2013-07-25 03:00:00,55.2,53.0,30.01,SSW,213,3.0,6.0,92,0.00,,,0.00,weatherlink.com 1.10,2013-07-25 07:00:00,
2013-07-25 03:15:00,55.8,54.0,30.01,SW,223,3.0,6.0,92,0.00,,,0.00,weatherlink.com 1.10,2013-07-25 07:15:00,
2013-07-25 03:30:00,55.7,54.0,30.01,SSW,206,2.0,5.0,92,0.00,,,0.00,weatherlink.com 1.10,2013-07-25 07:30:00,
2013-07-25 03:45:00,55.5,53.0,30.02,SW,217,2.0,5.0,92,0.00,,,0.00,weatherlink.com 1.10,2013-07-25 07:45:00,
2013-07-25 04:00:00,55.2,53.0,30.02,SSW,208,4.0,5.0,92,0.00,,,0.00,weatherlink.com 1.10,2013-07-25 08:00:00,
2013-07-25 04:15:00,55.1,53.0,30.02,SSW,208,2.0,6.0,92,0.00,,,0.00,weatherlink.com 1.10,2013-07-25 08:15:00,
2013-07-25 04:30:00,54.8,53.0,30.02,SSW,209,3.0,4.0,92,0.00,,,0.00,weatherlink.com 1.10,2013-07-25 08:30:00,
2013-07-25 04:45:00,54.7,53.0,30.02,SW,225,2.0,4.0,92,0.00,,,0.00,weatherlink.com 1.10,2013-07-25 08:45:00,
2013-07-25 05:00:00,54.0,52.0,30.02,SSW,192,1.0,4.0,92,0.00,,,0.00,weatherlink.com 1.10,2013-07-25 09:00:00,
2013-07-25 05:15:00,53.2,51.0,30.03,South,190,0.0,2.0,92,0.00,,,0.00,weatherlink.com 1.10,2013-07-25 09:15:00,
2013-07-25 05:30:00,52.6,51.0,30.03,South,190,0.0,1.0,93,0.00,,,0.00,weatherlink.com 1.10,2013-07-25 09:30:00,
2013-07-25 05:45:00,52.3,51.0,30.03,SSE,158,0.0,0.0,94,0.00,,,0.00,weatherlink.com 1.10,2013-07-25 09:45:00,
2013-07-25 06:00:00,52.6,51.0,30.04,SSE,158,0.0,0.0,95,0.00,,,0.00,weatherlink.com 1.10,2013-07-25 10:00:00,
2013-07-25 06:15:00,52.7,51.0,30.04,SSE,158,0.0,0.0,94,0.00,,,0.00,weatherlink.com 1.10,2013-07-25 10:15:00,
2013-07-25 06:30:00,52.8,52.0,30.04,SSE,158,0.0,0.0,95,0.00,,,0.00,weatherlink.com 1.10,2013-07-25 10:30:00,
2013-07-25 06:45:00,53.9,53.0,30.04,SSW,211,2.0,7.0,96,0.00,,,0.00,weatherlink.com 1.10,2013-07-25 10:45:00,
2013-07-25 07:00:00,55.5,54.0,30.04,SSW,196,2.0,5.0,94,0.00,,,0.00,weatherlink.com 1.10,2013-07-25 11:00:00,
2013-07-25 07:15:00,56.9,54.0,30.04,South,190,0.0,4.0,91,0.00,,,0.00,weatherlink.com 1.10,2013-07-25 11:15:00,
2013-07-25 07:30:00,58.2,55.0,30.04,SSE,163,1.0,2.0,90,0.00,,,0.00,weatherlink.com 1.10,2013-07-25 11:30:00,
2013-07-25 07:45:00,59.7,56.0,30.04,SE,146,4.0,6.0,88,0.00,,,0.00,weatherlink.com 1.10,2013-07-25 11:45:00,
2013-07-25 08:00:00,60.9,57.0,30.04,SSE,154,4.0,6.0,86,0.00,,,0.00,weatherlink.com 1.10,2013-07-25 12:00:00,
2013-07-25 08:15:00,61.9,57.0,30.05,ESE,119,5.0,7.0,83,0.00,,,0.00,weatherlink.com 1.10,2013-07-25 12:15:00,
2013-07-25 08:31:00,62.8,57.0,30.05,SSE,166,2.0,9.0,81,0.00,,,0.00,weatherlink.com 1.10,2013-07-25 12:31:00,
2013-07-25 08:46:00,63.5,57.0,30.05,South,188,4.0,9.0,79,0.00,,,0.00,weatherlink.com 1.10,2013-07-25 12:46:00,
2013-07-25 09:01:00,64.1,57.0,30.05,SSW,195,4.0,10.0,78,0.00,,,0.00,weatherlink.com 1.10,2013-07-25 13:01:00,
2013-07-25 09:16:00,64.8,57.0,30.06,South,169,5.0,10.0,75,0.00,,,0.00,weatherlink.com 1.10,2013-07-25 13:16:00,
2013-07-25 09:31:00,64.9,57.0,30.05,WSW,240,6.0,12.0,75,0.00,,,0.00,weatherlink.com 1.10,2013-07-25 13:31:00,
2013-07-25 09:46:00,65.6,58.0,30.05,SSE,149,2.0,9.0,75,0.00,,,0.00,weatherlink.com 1.10,2013-07-25 13:46:00,
2013-07-25 10:01:00,65.4,57.0,30.05,SE,146,6.0,11.0,74,0.00,,,0.00,weatherlink.com 1.10,2013-07-25 14:01:00,
2013-07-25 10:16:00,65.9,55.0,30.06,South,179,7.0,15.0,69,0.00,,,0.00,weatherlink.com 1.10,2013-07-25 14:16:00,
2013-07-25 10:31:00,66.0,56.0,30.05,SE,138,5.0,13.0,70,0.00,,,0.00,weatherlink.com 1.10,2013-07-25 14:31:00,
2013-07-25 10:46:00,66.5,54.0,30.05,SE,138,8.0,14.0,65,0.00,,,0.00,weatherlink.com 1.10,2013-07-25 14:46:00,
2013-07-25 11:01:00,66.7,54.0,30.05,SE,141,5.0,16.0,64,0.00,,,0.00,weatherlink.com 1.10,2013-07-25 15:01:00,
2013-07-25 11:16:00,67.8,56.0,30.05,SE,142,5.0,14.0,67,0.00,,,0.00,weatherlink.com 1.10,2013-07-25 15:16:00,
2013-07-25 11:31:00,67.1,56.0,30.05,ESE,117,4.0,16.0,68,0.00,,,0.00,weatherlink.com 1.10,2013-07-25 15:31:00,
2013-07-25 11:46:00,67.4,56.0,30.06,SE,142,9.0,14.0,66,0.00,,,0.00,weatherlink.com 1.10,2013-07-25 15:46:00,
2013-07-25 12:01:00,68.3,56.0,30.05,SE,144,6.0,13.0,66,0.00,,,0.00,weatherlink.com 1.10,2013-07-25 16:01:00,
2013-07-25 12:16:00,68.3,55.0,30.05,SSE,161,2.0,16.0,62,0.00,,,0.00,weatherlink.com 1.10,2013-07-25 16:16:00,
2013-07-25 12:31:00,68.3,54.0,30.06,South,177,3.0,15.0,61,0.00,,,0.00,weatherlink.com 1.10,2013-07-25 16:31:00,
2013-07-25 12:46:00,68.2,55.0,30.06,SSE,161,11.0,16.0,63,0.00,,,0.00,weatherlink.com 1.10,2013-07-25 16:46:00,
2013-07-25 13:01:00,68.4,54.0,30.06,South,182,3.0,15.0,61,0.00,,,0.00,weatherlink.com 1.10,2013-07-25 17:01:00,
2013-07-25 13:16:00,69.0,57.0,30.06,SSW,196,7.0,13.0,65,0.00,,,0.00,weatherlink.com 1.10,2013-07-25 17:16:00,
2013-07-25 13:31:00,68.4,56.0,30.06,SE,138,10.0,19.0,64,0.00,,,0.00,weatherlink.com 1.10,2013-07-25 17:31:00,
2013-07-25 13:46:00,68.7,55.0,30.06,SE,146,7.0,15.0,62,0.00,,,0.00,weatherlink.com 1.10,2013-07-25 17:46:00,
2013-07-25 14:01:00,68.8,57.0,30.06,SE,138,8.0,15.0,67,0.00,,,0.00,weatherlink.com 1.10,2013-07-25 18:01:00,
2013-07-25 14:16:00,69.4,57.0,30.05,SE,144,16.0,16.0,66,0.00,,,0.00,weatherlink.com 1.10,2013-07-25 18:16:00,
2013-07-25 14:31:00,69.0,57.0,30.05,SSE,153,9.0,19.0,66,0.00,,,0.00,weatherlink.com 1.10,2013-07-25 18:31:00,
2013-07-25 15:01:00,68.9,54.0,30.04,SE,128,11.0,18.0,60,0.00,,,0.00,weatherlink.com 1.10,2013-07-25 19:01:00,
2013-07-25 15:46:00,67.8,56.0,30.04,SE,134,4.0,17.0,65,0.00,,,0.00,weatherlink.com 1.10,2013-07-25 19:46:00,
2013-07-25 16:01:00,67.7,55.0,30.03,SE,143,12.0,16.0,64,0.00,,,0.00,weatherlink.com 1.10,2013-07-25 20:01:00,
2013-07-25 16:31:00,65.2,56.0,30.03,SE,137,19.0,23.0,71,0.00,,,0.00,weatherlink.com 1.10,2013-07-25 20:31:00,
2013-07-25 16:46:00,64.3,56.0,30.04,SE,143,9.0,17.0,74,0.00,,,0.00,weatherlink.com 1.10,2013-07-25 20:46:00,
2013-07-25 17:01:00,66.3,57.0,30.04,ESE,119,7.0,16.0,72,0.00,,,0.00,weatherlink.com 1.10,2013-07-25 21:01:00,
2013-07-25 17:16:00,66.2,57.0,30.04,ESE,118,8.0,18.0,71,0.00,,,0.00,weatherlink.com 1.10,2013-07-25 21:16:00,
2013-07-25 17:31:00,66.3,58.0,30.03,SE,146,10.0,15.0,74,0.00,,,0.00,weatherlink.com 1.10,2013-07-25 21:31:00,
2013-07-25 17:46:00,66.4,58.0,30.03,SE,138,10.0,14.0,73,0.00,,,0.00,weatherlink.com 1.10,2013-07-25 21:46:00,
2013-07-25 18:01:00,65.5,57.0,30.02,SSE,161,10.0,19.0,73,0.00,,,0.00,weatherlink.com 1.10,2013-07-25 22:01:00,
2013-07-25 18:16:00,65.2,57.0,30.02,SE,144,13.0,17.0,75,0.00,,,0.00,weatherlink.com 1.10,2013-07-25 22:16:00,
2013-07-25 18:31:00,65.3,58.0,30.02,ESE,118,12.0,16.0,76,0.00,,,0.00,weatherlink.com 1.10,2013-07-25 22:31:00,
2013-07-25 19:16:00,64.0,57.0,30.01,SSE,163,6.0,23.0,79,0.00,,,0.00,weatherlink.com 1.10,2013-07-25 23:16:00,
2013-07-25 19:31:00,63.8,58.0,30.00,SE,137,11.0,15.0,80,0.00,,,0.00,weatherlink.com 1.10,2013-07-25 23:31:00,
2013-07-25 19:47:00,62.7,57.0,30.00,SSE,149,7.0,16.0,81,0.00,,,0.00,weatherlink.com 1.10,2013-07-25 23:47:00,
2013-07-25 20:02:00,62.4,57.0,30.01,SE,141,6.0,14.0,82,0.00,,,0.00,weatherlink.com 1.10,2013-07-26 00:02:00,
2013-07-25 20:17:00,61.8,57.0,30.01,SE,144,6.0,14.0,83,0.00,,,0.00,weatherlink.com 1.10,2013-07-26 00:17:00,
2013-07-25 20:47:00,60.8,56.0,30.01,SSE,150,8.0,11.0,85,0.00,,,0.00,weatherlink.com 1.10,2013-07-26 00:47:00,
2013-07-25 21:02:00,60.7,56.0,30.01,SSE,158,6.0,10.0,84,0.00,,,0.00,weatherlink.com 1.10,2013-07-26 01:02:00,
2013-07-25 21:17:00,60.6,56.0,30.02,ESE,120,5.0,10.0,84,0.00,,,0.00,weatherlink.com 1.10,2013-07-26 01:17:00,
2013-07-25 21:32:00,60.2,56.0,30.01,SE,143,9.0,11.0,85,0.00,,,0.00,weatherlink.com 1.10,2013-07-26 01:32:00,
2013-07-25 21:47:00,60.2,56.0,30.01,SSE,147,7.0,11.0,85,0.00,,,0.00,weatherlink.com 1.10,2013-07-26 01:47:00,
2013-07-25 22:02:00,60.3,56.0,30.00,SE,139,7.0,13.0,84,0.00,,,0.00,weatherlink.com 1.10,2013-07-26 02:02:00,
2013-07-25 22:17:00,60.4,55.0,30.01,SSE,147,6.0,10.0,83,0.00,,,0.00,weatherlink.com 1.10,2013-07-26 02:17:00,
2013-07-25 22:32:00,60.7,55.0,30.00,SE,136,6.0,13.0,82,0.00,,,0.00,weatherlink.com 1.10,2013-07-26 02:32:00,
2013-07-25 22:47:00,61.1,55.0,29.99,SE,142,7.0,15.0,80,0.00,,,0.00,weatherlink.com 1.10,2013-07-26 02:47:00,
2013-07-25 23:02:00,61.2,55.0,30.00,SE,144,6.0,11.0,80,0.00,,,0.00,weatherlink.com 1.10,2013-07-26 03:02:00,
2013-07-25 23:17:00,61.2,55.0,30.00,ESE,123,9.0,14.0,81,0.00,,,0.00,weatherlink.com 1.10,2013-07-26 03:17:00,
2013-07-25 23:32:00,61.2,55.0,29.99,SE,142,8.0,14.0,81,0.00,,,0.00,weatherlink.com 1.10,2013-07-26 03:32:00,
2013-07-25 23:47:00,61.5,55.0,30.00,SSE,164,6.0,14.0,80,0.00,,,0.00,weatherlink.com 1.10,2013-07-26 03:47:00,